createdAt,value
2018-01-08T00:00:55.413Z,224.03
2018-01-08T00:03:23.089Z,229.73
2018-01-08T00:05:50.668Z,204.00
2018-01-08T00:08:18.234Z,170.27
2018-01-08T00:10:45.858Z,158.07
2018-01-08T00:13:13.487Z,170.17
2018-01-08T00:15:41.115Z,159.27
2018-01-08T00:18:08.737Z,167.30
2018-01-08T00:20:36.391Z,188.70
2018-01-08T00:23:03.945Z,199.50
2018-01-08T00:25:31.673Z,213.07
2018-01-08T00:27:59.247Z,189.30
2018-01-08T00:30:26.872Z,195.73
2018-01-08T00:32:54.526Z,211.93
2018-01-08T00:35:22.159Z,238.37
2018-01-08T00:37:49.807Z,234.27
2018-01-08T00:40:17.462Z,207.93
2018-01-08T00:42:45.026Z,203.63
2018-01-08T00:45:12.616Z,202.70
2018-01-08T00:47:40.299Z,193.90
2018-01-08T00:50:07.875Z,204.53
2018-01-08T00:52:35.509Z,186.83
2018-01-08T00:55:03.151Z,206.47
2018-01-08T00:57:30.726Z,211.20
2018-01-08T00:59:58.354Z,220.57
2018-01-08T01:02:25.999Z,198.03
2018-01-08T01:04:53.626Z,197.50
2018-01-08T01:07:21.198Z,176.37
2018-01-08T01:09:48.833Z,165.77
2018-01-08T01:12:16.387Z,156.83
2018-01-08T01:14:43.954Z,154.80
2018-01-08T01:17:11.586Z,158.53
2018-01-08T01:19:39.211Z,146.97
2018-01-08T01:22:06.828Z,154.00
2018-01-08T01:24:34.521Z,134.53
2018-01-08T01:27:02.095Z,111.33
2018-01-08T01:29:29.666Z,128.70
2018-01-08T01:31:57.282Z,120.03
2018-01-08T01:34:24.825Z,97.53
2018-01-08T01:36:52.393Z,133.97
2018-01-08T01:39:20.032Z,111.60
2018-01-08T01:41:47.613Z,153.90
2018-01-08T01:44:15.191Z,142.53
2018-01-08T01:46:42.814Z,153.13
2018-01-08T01:49:21.496Z,119.47
2018-01-08T01:51:49.126Z,81.40
2018-01-08T01:54:16.755Z,92.07
2018-01-08T01:56:44.329Z,65.07
2018-01-08T01:59:12.006Z,70.47
2018-01-08T02:01:39.622Z,79.23
2018-01-08T02:04:07.253Z,87.47
2018-01-08T02:06:34.870Z,90.03
2018-01-08T02:09:02.449Z,101.60
2018-01-08T02:11:30.019Z,91.60
2018-01-08T02:13:57.638Z,73.83
2018-01-08T02:16:25.202Z,89.70
2018-01-08T02:18:52.771Z,69.00
2018-01-08T02:21:20.468Z,93.17
2018-01-08T02:23:48.038Z,63.63
2018-01-08T02:26:15.677Z,49.97
2018-01-08T02:28:43.302Z,51.07
2018-01-08T02:31:10.866Z,59.40
2018-01-08T02:33:38.502Z,56.00
2018-01-08T02:36:06.182Z,62.73
2018-01-08T02:38:33.804Z,54.97
2018-01-08T02:41:01.373Z,47.73
2018-01-08T02:43:29.022Z,44.13
2018-01-08T02:45:56.587Z,52.73
2018-01-08T02:48:24.226Z,45.20
2018-01-08T02:50:51.980Z,37.57
2018-01-08T02:53:19.607Z,41.10
2018-01-08T02:55:47.174Z,33.83
2018-01-08T02:58:14.822Z,39.07
2018-01-08T03:00:42.512Z,30.30
2018-01-08T03:03:10.081Z,40.93
2018-01-08T03:05:37.702Z,46.23
2018-01-08T03:08:05.267Z,40.40
2018-01-08T03:10:32.834Z,38.67
2018-01-08T03:13:00.462Z,34.27
2018-01-08T03:15:28.025Z,48.37
2018-01-08T03:17:55.593Z,48.67
2018-01-08T03:20:23.275Z,47.23
2018-01-08T03:22:50.909Z,43.10
2018-01-08T03:25:18.509Z,39.03
2018-01-08T03:27:46.204Z,32.60
2018-01-08T03:30:13.829Z,31.10
2018-01-08T03:32:41.398Z,37.13
2018-01-08T03:35:09.018Z,49.60
2018-01-08T03:37:36.582Z,58.30
2018-01-08T03:40:04.158Z,54.77
2018-01-08T03:42:31.770Z,53.83
2018-01-08T03:44:59.331Z,61.80
2018-01-08T03:47:26.896Z,57.17
2018-01-08T03:49:54.576Z,51.43
2018-01-08T03:52:22.202Z,50.83
2018-01-08T03:54:49.826Z,82.70
2018-01-08T03:57:17.473Z,116.43
2018-01-08T03:59:45.043Z,109.20
2018-01-08T04:02:12.713Z,59.03
2018-01-08T04:04:40.343Z,52.80
2018-01-08T04:07:07.913Z,56.00
2018-01-08T04:09:35.538Z,61.83
2018-01-08T04:12:03.211Z,64.90
2018-01-08T04:14:30.834Z,70.07
2018-01-08T04:16:58.399Z,64.67
2018-01-08T04:19:26.018Z,48.17
2018-01-08T04:21:53.578Z,54.00
2018-01-08T04:24:21.152Z,59.30
2018-01-08T04:26:48.772Z,59.83
2018-01-08T04:29:16.339Z,59.33
2018-01-08T04:31:43.892Z,59.77
2018-01-08T04:34:11.564Z,62.77
2018-01-08T04:36:39.134Z,62.43
2018-01-08T04:39:06.708Z,59.77
2018-01-08T04:41:34.328Z,77.40
2018-01-08T04:44:01.965Z,71.47
2018-01-08T04:46:29.597Z,66.47
2018-01-08T04:48:57.279Z,80.80
2018-01-08T04:51:24.904Z,65.47
2018-01-08T04:53:52.462Z,76.30
2018-01-08T04:56:20.094Z,84.07
2018-01-08T04:58:47.675Z,80.90
2018-01-08T05:01:15.238Z,89.83
2018-01-08T05:03:42.859Z,104.53
2018-01-08T05:06:10.437Z,99.53
2018-01-08T05:08:38.003Z,96.83
2018-01-08T05:11:05.683Z,99.80
2018-01-08T05:13:33.290Z,110.07
2018-01-08T05:16:00.928Z,97.00
2018-01-08T05:18:28.611Z,100.03
2018-01-08T05:20:56.239Z,106.23
2018-01-08T05:23:23.821Z,105.03
2018-01-08T05:25:51.521Z,104.23
2018-01-08T05:28:19.087Z,108.93
2018-01-08T05:30:46.659Z,122.27
2018-01-08T05:33:14.352Z,121.60
2018-01-08T05:35:41.926Z,129.17
2018-01-08T05:38:09.493Z,116.13
2018-01-08T05:40:37.199Z,132.70
2018-01-08T05:43:04.771Z,110.60
2018-01-08T05:45:32.342Z,101.67
2018-01-08T05:47:59.966Z,113.30
2018-01-08T05:50:27.525Z,103.63
2018-01-08T05:52:55.085Z,138.93
2018-01-08T05:55:22.735Z,177.47
2018-01-08T05:57:50.359Z,151.20
2018-01-08T06:00:17.926Z,137.97
2018-01-08T06:02:45.608Z,138.57
2018-01-08T06:05:13.174Z,119.93
2018-01-08T06:07:40.738Z,82.57
2018-01-08T06:10:08.357Z,86.57
2018-01-08T06:12:35.982Z,81.43
2018-01-08T06:15:03.651Z,110.13
2018-01-08T06:17:31.274Z,114.03
2018-01-08T06:19:58.834Z,90.20
2018-01-08T06:22:26.458Z,98.07
2018-01-08T06:24:54.097Z,84.40
2018-01-08T06:27:21.643Z,91.07
2018-01-08T06:29:49.271Z,77.03
2018-01-08T06:32:16.924Z,64.80
2018-01-08T06:34:44.482Z,68.67
2018-01-08T06:37:12.112Z,85.97
2018-01-08T06:39:39.875Z,104.50
2018-01-08T06:42:07.438Z,117.17
2018-01-08T06:44:35.063Z,200.20
2018-01-08T06:47:02.711Z,119.27
2018-01-08T06:49:30.335Z,90.17
2018-01-08T06:51:57.897Z,83.87
2018-01-08T06:54:25.529Z,62.27
2018-01-08T06:56:53.090Z,74.77
2018-01-08T06:59:20.705Z,69.53
2018-01-08T07:01:48.275Z,64.10
2018-01-08T07:04:15.835Z,73.60
2018-01-08T07:06:43.428Z,63.63
2018-01-08T07:09:11.036Z,60.03
2018-01-08T07:11:38.658Z,71.30
2018-01-08T07:14:06.283Z,67.60
2018-01-08T07:16:33.851Z,69.27
2018-01-08T07:19:01.490Z,112.17
2018-01-08T07:21:29.084Z,70.50
2018-01-08T07:23:56.733Z,84.50
2018-01-08T07:26:24.354Z,69.87
2018-01-08T07:28:51.926Z,143.93
2018-01-08T07:31:19.561Z,80.93
2018-01-08T07:33:47.188Z,78.60
2018-01-08T07:36:14.803Z,100.90
2018-01-08T07:38:42.382Z,140.97
2018-01-08T07:41:10.006Z,166.13
2018-01-08T07:43:37.581Z,137.80
2018-01-08T07:46:05.147Z,125.00
2018-01-08T07:48:32.828Z,104.90
2018-01-08T07:51:00.394Z,139.57
2018-01-08T07:53:28.021Z,57.77
2018-01-08T07:55:55.660Z,52.30
2018-01-08T07:58:23.226Z,45.17
2018-01-08T08:00:50.854Z,62.97
2018-01-08T08:03:18.426Z,38.17
2018-01-08T08:05:45.995Z,49.57
2018-01-08T08:08:13.647Z,41.50
2018-01-08T08:10:41.278Z,29.20
2018-01-08T08:13:08.965Z,30.63
2018-01-08T08:15:36.551Z,21.73
2018-01-08T08:18:04.124Z,18.37
2018-01-08T08:20:31.706Z,16.37
2018-01-08T08:22:59.275Z,20.20
2018-01-08T08:25:26.886Z,22.83
2018-01-08T08:27:54.436Z,22.90
2018-01-08T08:30:21.997Z,28.40
2018-01-08T08:32:49.573Z,20.80
2018-01-08T08:35:17.180Z,28.97
2018-01-08T08:37:44.888Z,22.50
2018-01-08T08:40:12.537Z,21.17
2018-01-08T08:42:40.107Z,45.07
2018-01-08T08:45:08.606Z,30.13
2018-01-08T08:47:36.184Z,38.20
2018-01-08T08:50:03.844Z,30.67
2018-01-08T08:52:31.427Z,44.10
2018-01-08T08:54:59.034Z,46.67
2018-01-08T08:57:26.675Z,101.73
2018-01-08T08:59:54.246Z,150.67
2018-01-08T09:02:21.954Z,127.30
2018-01-08T09:04:49.591Z,108.63
2018-01-08T09:07:17.235Z,113.23
2018-01-08T09:09:44.878Z,108.60
2018-01-08T09:12:12.502Z,96.67
2018-01-08T09:14:40.225Z,102.40
2018-01-08T09:17:07.775Z,87.67
2018-01-08T09:19:35.333Z,83.93
2018-01-08T09:22:02.968Z,74.87
2018-01-08T09:24:30.534Z,82.03
2018-01-08T09:26:58.220Z,92.30
2018-01-08T09:29:25.855Z,85.77
2018-01-08T09:31:53.474Z,99.37
2018-01-08T09:34:21.116Z,97.73
2018-01-08T09:36:48.750Z,116.60
2018-01-08T09:39:16.375Z,110.43
2018-01-08T09:41:43.950Z,113.17
2018-01-08T09:44:11.522Z,95.33
2018-01-08T09:46:39.103Z,116.30
2018-01-08T09:49:06.734Z,112.77
2018-01-08T09:51:34.358Z,109.87
2018-01-08T09:54:01.982Z,85.77
2018-01-08T09:56:29.614Z,66.97
2018-01-08T09:58:57.195Z,75.40
2018-01-08T10:01:24.791Z,54.83
2018-01-08T10:04:04.056Z,47.87
2018-01-08T10:06:43.520Z,48.00
2018-01-08T10:09:22.754Z,52.07
2018-01-08T10:12:02.144Z,42.90
2018-01-08T10:14:41.727Z,51.73
2018-01-08T10:17:20.912Z,45.23
2018-01-08T10:20:03.415Z,53.03
2018-01-08T10:22:30.968Z,50.63
2018-01-08T10:24:58.590Z,55.30
2018-01-08T10:27:26.173Z,52.80
2018-01-08T10:29:53.805Z,60.63
2018-01-08T10:32:21.448Z,41.80
2018-01-08T10:34:49.022Z,51.07
2018-01-08T10:37:16.673Z,71.43
2018-01-08T10:39:44.303Z,57.20
2018-01-08T10:42:17.534Z,55.33
2018-01-08T10:44:50.685Z,49.57
2018-01-08T10:47:23.775Z,88.30
2018-01-08T10:49:56.957Z,68.73
2018-01-08T10:52:24.033Z,70.23
2018-01-08T10:54:51.660Z,65.37
2018-01-08T10:57:19.290Z,53.40
2018-01-08T10:59:46.880Z,50.27
2018-01-08T11:02:19.965Z,60.37
2018-01-08T11:04:47.549Z,42.03
2018-01-08T11:07:15.222Z,42.47
2018-01-08T11:09:42.841Z,45.93
2018-01-08T11:12:10.423Z,41.17
2018-01-08T11:14:38.002Z,35.37
2018-01-08T11:17:05.578Z,31.97
2018-01-08T11:19:33.151Z,37.10
2018-01-08T11:22:00.835Z,32.07
2018-01-08T11:24:28.482Z,35.53
2018-01-08T11:26:56.055Z,43.93
2018-01-08T11:29:23.647Z,63.53
2018-01-08T11:31:51.256Z,50.13
2018-01-08T11:34:18.902Z,125.63
2018-01-08T11:36:46.571Z,42.43
2018-01-08T11:39:14.154Z,80.37
2018-01-08T11:41:41.795Z,89.83
2018-01-08T11:44:09.504Z,87.50
2018-01-08T11:46:37.127Z,52.23
2018-01-08T11:49:04.758Z,53.07
2018-01-08T11:51:32.381Z,46.70
2018-01-08T11:53:59.950Z,41.73
2018-01-08T11:56:27.627Z,54.43
2018-01-08T11:58:55.231Z,34.20
2018-01-08T12:01:22.814Z,43.60
2018-01-08T12:03:50.446Z,65.47
2018-01-08T12:06:18.023Z,56.50
2018-01-08T12:08:45.582Z,40.60
2018-01-08T12:11:13.293Z,39.60
2018-01-08T12:13:40.879Z,38.03
2018-01-08T12:16:08.508Z,60.63
2018-01-08T12:18:36.179Z,30.97
2018-01-08T12:21:03.745Z,55.93
2018-01-08T12:23:31.370Z,48.73
2018-01-08T12:25:58.997Z,30.73
2018-01-08T12:28:26.583Z,44.57
2018-01-08T12:30:54.252Z,41.87
2018-01-08T12:33:21.823Z,34.70
2018-01-08T12:35:49.446Z,26.00
2018-01-08T12:38:17.074Z,22.37
2018-01-08T12:40:44.678Z,48.20
2018-01-08T12:43:12.318Z,24.97
2018-01-08T12:45:39.895Z,29.80
2018-01-08T12:48:07.519Z,44.23
2018-01-08T12:50:35.156Z,25.57
2018-01-08T12:53:02.727Z,44.83
2018-01-08T12:55:30.380Z,30.63
2018-01-08T12:57:57.951Z,25.40
2018-01-08T13:00:25.654Z,32.37
2018-01-08T13:02:53.291Z,34.80
2018-01-08T13:05:20.875Z,44.97
2018-01-08T13:07:48.459Z,40.10
2018-01-08T13:10:16.090Z,48.30
2018-01-08T13:12:43.780Z,31.97
2018-01-08T13:15:11.351Z,30.80
2018-01-08T13:17:38.984Z,37.53
2018-01-08T13:20:06.620Z,34.43
2018-01-08T13:22:34.216Z,30.83
2018-01-08T13:25:01.860Z,36.47
2018-01-08T13:27:29.487Z,45.40
2018-01-08T13:29:57.117Z,30.87
2018-01-08T13:32:24.765Z,29.23
2018-01-08T13:34:52.345Z,30.07
2018-01-08T13:37:19.974Z,21.17
2018-01-08T13:39:47.608Z,30.70
2018-01-08T13:42:15.202Z,26.17
2018-01-08T13:44:42.847Z,26.73
2018-01-08T13:47:10.483Z,29.17
2018-01-08T13:49:38.183Z,23.23
2018-01-08T13:52:05.782Z,32.53
2018-01-08T13:54:33.351Z,31.47
2018-01-08T13:57:01.017Z,36.73
2018-01-08T13:59:28.651Z,30.13
2018-01-08T14:01:56.351Z,33.73
2018-01-08T14:04:23.938Z,37.50
2018-01-08T14:06:51.603Z,28.60
2018-01-08T14:09:19.211Z,36.63
2018-01-08T14:11:46.885Z,39.37
2018-01-08T14:14:14.575Z,41.07
2018-01-08T14:16:42.148Z,22.77
2018-01-08T14:19:09.723Z,39.70
2018-01-08T14:21:37.310Z,40.17
2018-01-08T14:24:04.939Z,48.27
2018-01-08T14:26:32.569Z,37.90
2018-01-08T14:29:00.779Z,40.17
2018-01-08T14:31:28.350Z,39.17
2018-01-08T14:33:55.954Z,39.73
2018-01-08T14:36:23.523Z,46.40
2018-01-08T14:38:51.202Z,45.03
2018-01-08T14:41:18.778Z,37.20
2018-01-08T14:43:46.348Z,44.97
2018-01-08T14:46:13.930Z,39.33
2018-01-08T14:48:41.560Z,53.13
2018-01-08T14:51:09.243Z,40.90
2018-01-08T14:53:36.810Z,60.60
2018-01-08T14:56:04.415Z,51.13
2018-01-08T14:58:31.998Z,54.13
2018-01-08T15:00:59.629Z,59.83
2018-01-08T15:03:27.256Z,57.07
2018-01-08T15:05:54.843Z,50.77
2018-01-08T15:08:22.412Z,61.57
2018-01-08T15:10:49.998Z,64.87
2018-01-08T15:13:17.627Z,66.73
2018-01-08T15:15:45.259Z,71.23
2018-01-08T15:18:12.857Z,69.70
2018-01-08T15:20:40.502Z,90.77
2018-01-08T15:23:08.088Z,88.50
2018-01-08T15:25:35.719Z,75.67
2018-01-08T15:28:03.371Z,82.80
2018-01-08T15:30:31.010Z,92.27
2018-01-08T15:32:58.653Z,71.07
2018-01-08T15:35:26.230Z,72.00
2018-01-08T15:37:53.804Z,66.53
2018-01-08T15:40:21.428Z,89.83
2018-01-08T15:42:49.055Z,92.67
2018-01-08T15:45:16.687Z,114.67
2018-01-08T15:47:44.330Z,125.40
2018-01-08T15:50:11.912Z,135.87
2018-01-08T15:52:39.557Z,123.80
2018-01-08T15:55:07.128Z,84.90
2018-01-08T15:57:34.755Z,87.27
2018-01-08T16:00:02.353Z,81.63
2018-01-08T16:02:29.983Z,76.57
2018-01-08T16:04:57.606Z,68.80
2018-01-08T16:07:25.181Z,74.13
2018-01-08T16:09:52.762Z,73.97
2018-01-08T16:12:20.360Z,94.00
2018-01-08T16:14:48.012Z,103.00
2018-01-08T16:17:15.694Z,87.30
2018-01-08T16:19:43.275Z,74.00
2018-01-08T16:22:10.916Z,71.77
2018-01-08T16:24:38.495Z,68.20
2018-01-08T16:27:06.114Z,71.20
2018-01-08T16:29:33.803Z,66.40
2018-01-08T16:32:01.377Z,83.13
2018-01-08T16:34:29.129Z,80.10
2018-01-08T16:36:56.698Z,83.00
2018-01-08T16:39:24.313Z,85.47
2018-01-08T16:41:52.004Z,91.13
2018-01-08T16:44:19.631Z,130.47
2018-01-08T16:46:47.201Z,148.50
2018-01-08T16:49:14.800Z,144.70
2018-01-08T16:51:42.377Z,175.83
2018-01-08T16:54:10.035Z,187.70
2018-01-08T16:56:37.671Z,210.70
2018-01-08T16:59:05.229Z,228.53
2018-01-08T17:01:32.809Z,239.83
2018-01-08T17:04:00.382Z,237.83
2018-01-08T17:06:28.081Z,310.60
2018-01-08T17:08:55.780Z,314.57
2018-01-08T17:11:23.324Z,304.27
2018-01-08T17:13:50.887Z,250.03
2018-01-08T17:16:18.520Z,213.97
2018-01-08T17:18:46.157Z,192.77
2018-01-08T17:21:13.798Z,207.97
2018-01-08T17:23:41.382Z,190.73
2018-01-08T17:26:08.964Z,162.50
2018-01-08T17:28:36.535Z,160.63
2018-01-08T17:31:04.175Z,145.83
2018-01-08T17:33:31.750Z,136.93
2018-01-08T17:35:59.322Z,146.77
2018-01-08T17:38:26.909Z,142.83
2018-01-08T17:40:54.493Z,135.87
2018-01-08T17:43:22.146Z,122.60
2018-01-08T17:45:49.718Z,137.97
2018-01-08T17:48:17.347Z,126.47
2018-01-08T17:50:44.923Z,146.93
2018-01-08T17:53:12.484Z,152.10
2018-01-08T17:55:40.207Z,146.87
2018-01-08T17:58:07.775Z,138.20
2018-01-08T18:00:35.346Z,163.53
2018-01-08T18:03:02.926Z,194.43
2018-01-08T18:05:30.505Z,197.00
2018-01-08T18:07:58.144Z,228.67
2018-01-08T18:10:25.722Z,261.60
2018-01-08T18:12:53.359Z,222.33
2018-01-08T18:15:20.962Z,142.90
2018-01-08T18:17:48.591Z,141.07
2018-01-08T18:20:16.274Z,132.13
2018-01-08T18:22:43.905Z,157.00
2018-01-08T18:25:11.535Z,150.03
2018-01-08T18:27:39.206Z,151.93
2018-01-08T18:30:06.838Z,175.20
2018-01-08T18:32:34.470Z,198.10
2018-01-08T18:35:02.060Z,217.00
2018-01-08T18:37:29.648Z,274.13
2018-01-08T18:39:57.235Z,233.10
2018-01-08T18:42:24.821Z,259.43
2018-01-08T18:44:52.538Z,247.47
2018-01-08T18:47:20.181Z,209.07
2018-01-08T18:49:47.821Z,215.10
2018-01-08T18:52:15.378Z,191.03
2018-01-08T18:54:43.003Z,182.37
2018-01-08T18:57:10.622Z,183.03
2018-01-08T18:59:38.191Z,178.87
2018-01-08T19:02:05.837Z,213.60
2018-01-08T19:04:33.475Z,205.33
2018-01-08T19:07:01.115Z,192.87
2018-01-08T19:09:28.748Z,143.00
2018-01-08T19:11:56.375Z,159.10
2018-01-08T19:14:23.964Z,154.13
2018-01-08T19:16:51.551Z,138.33
2018-01-08T19:19:19.127Z,142.60
2018-01-08T19:21:46.829Z,132.37
2018-01-08T19:24:14.418Z,120.73
2018-01-08T19:26:41.992Z,128.33
2018-01-08T19:29:09.571Z,123.50
2018-01-08T19:31:37.151Z,265.57
2018-01-08T19:34:04.820Z,138.73
2018-01-08T19:36:32.394Z,126.23
2018-01-08T19:39:00.017Z,135.23
2018-01-08T19:41:27.681Z,137.13
2018-01-08T19:43:55.334Z,161.07
2018-01-08T19:46:22.962Z,213.87
2018-01-08T19:48:50.534Z,336.27
2018-01-08T19:51:18.116Z,318.97
2018-01-08T19:53:45.715Z,245.50
2018-01-08T19:56:13.350Z,203.97
2018-01-08T19:58:41.044Z,192.73
2018-01-08T20:01:08.671Z,171.50
2018-01-08T20:03:36.242Z,164.07
2018-01-08T20:06:03.892Z,182.60
2018-01-08T20:08:31.476Z,161.63
2018-01-08T20:10:59.158Z,156.00
2018-01-08T20:13:26.735Z,122.80
2018-01-08T20:15:54.288Z,147.93
2018-01-08T20:18:21.868Z,196.97
2018-01-08T20:20:49.534Z,251.17
2018-01-08T20:23:17.169Z,206.87
2018-01-08T20:25:44.750Z,207.13
2018-01-08T20:28:12.381Z,185.53
2018-01-08T20:30:39.965Z,180.57
2018-01-08T20:33:07.543Z,190.27
2018-01-08T20:35:35.165Z,198.97
2018-01-08T20:38:02.735Z,209.10
2018-01-08T20:40:30.298Z,169.93
2018-01-08T20:42:57.935Z,199.63
2018-01-08T20:45:25.562Z,153.17
2018-01-08T20:47:53.214Z,140.03
2018-01-08T20:50:20.841Z,145.40
2018-01-08T20:52:48.470Z,115.10
2018-01-08T20:55:16.110Z,131.97
2018-01-08T20:57:43.743Z,158.30
2018-01-08T21:00:11.394Z,222.13
2018-01-08T21:02:38.967Z,200.30
2018-01-08T21:05:06.543Z,185.17
2018-01-08T21:07:34.122Z,164.80
2018-01-08T21:10:01.692Z,123.10
2018-01-08T21:12:29.332Z,112.17
2018-01-08T21:14:56.905Z,99.57
2018-01-08T21:17:24.471Z,96.50
2018-01-08T21:19:52.051Z,105.27
2018-01-08T21:22:19.617Z,79.30
2018-01-08T21:24:47.222Z,86.33
2018-01-08T21:27:14.790Z,89.23
2018-01-08T21:29:42.415Z,88.03
2018-01-08T21:32:09.982Z,84.97
2018-01-08T21:34:37.606Z,78.33
2018-01-08T21:37:05.283Z,97.63
2018-01-08T21:39:33.668Z,87.10
2018-01-08T21:42:01.294Z,86.13
2018-01-08T21:44:28.874Z,79.83
2018-01-08T21:46:56.498Z,82.50
2018-01-08T21:49:24.192Z,93.33
2018-01-08T21:51:51.768Z,105.80
2018-01-08T21:54:19.344Z,88.40
2018-01-08T21:56:46.930Z,114.53
2018-01-08T21:59:14.567Z,129.53
2018-01-08T22:01:42.195Z,120.87
2018-01-08T22:04:09.802Z,135.87
2018-01-08T22:06:37.379Z,119.07
2018-01-08T22:09:05.008Z,112.30
2018-01-08T22:11:32.588Z,113.10
2018-01-08T22:14:00.211Z,119.97
2018-01-08T22:16:27.782Z,115.63
2018-01-08T22:18:55.351Z,127.10
2018-01-08T22:21:22.930Z,125.67
2018-01-08T22:23:50.503Z,128.30
2018-01-08T22:26:18.130Z,118.93
2018-01-08T22:28:45.756Z,141.40
2018-01-08T22:31:13.338Z,166.17
2018-01-08T22:33:40.914Z,145.40
2018-01-08T22:36:08.483Z,133.93
2018-01-08T22:38:36.122Z,132.33
2018-01-08T22:41:03.766Z,133.97
2018-01-08T22:43:31.340Z,111.77
2018-01-08T22:45:58.936Z,137.90
2018-01-08T22:48:26.507Z,164.60
2018-01-08T22:50:54.188Z,201.80
2018-01-08T22:53:21.814Z,204.13
2018-01-08T22:55:49.443Z,249.80
2018-01-08T22:58:17.037Z,222.27
2018-01-08T23:00:44.610Z,256.07
2018-01-08T23:03:12.305Z,289.30
2018-01-08T23:05:39.870Z,275.10
2018-01-08T23:08:07.438Z,429.57
2018-01-08T23:10:35.018Z,411.40
2018-01-08T23:13:02.588Z,553.00
2018-01-08T23:15:30.230Z,442.60
2018-01-08T23:17:57.801Z,379.83
2018-01-08T23:20:25.435Z,364.63
2018-01-08T23:22:53.079Z,409.67
2018-01-08T23:25:20.657Z,503.23
2018-01-08T23:27:48.295Z,421.07
2018-01-08T23:30:15.858Z,435.03
2018-01-08T23:32:43.482Z,333.30
2018-01-08T23:35:11.066Z,394.70
2018-01-08T23:37:38.638Z,305.23
2018-01-08T23:40:06.272Z,228.00
2018-01-08T23:42:33.848Z,243.00
2018-01-08T23:45:01.423Z,242.63
2018-01-08T23:47:28.998Z,229.13
2018-01-08T23:49:56.652Z,184.67
2018-01-08T23:52:24.386Z,179.53
2018-01-08T23:54:51.966Z,186.27
2018-01-08T23:57:19.546Z,291.83
2018-01-08T23:59:47.130Z,204.17
